KOOA/OOA METAR and TAF weather

Enter ICAO airport designator
Station Type Date Time Source
KOOA METAR 2019/02/20 23:55 UTC NOAA

KOOA 202355Z AUTO 25017G25KT 10SM OVC036 M01/M04 A2979 RMK AO2 T10061045 10016 21006


Station Type Date Time Source
KOOA Decoded METAR 2019/02/20 23:55 UTC NOAA

Oskaloosa, Oskaloosa Municipal Airport, IA, United States (KOOA) 41-13-34N 092-29-37W
Feb 20, 2019 - 06:55 PM EST / 2019.02.20 2355 UTC
Wind: from the WSW (250 degrees) at 20 MPH (17 KT) gusting to 29 MPH (25 KT):0
Visibility: 10 mile(s):0
Sky conditions: overcast
Temperature: 30.9 F (-0.6 C)
Windchill: 19 F (-7 C):1
Dew Point: 23.9 F (-4.5 C)
Relative Humidity: 74%
Pressure (altimeter): 29.79 in. Hg (1008 hPa)
ob: KOOA 202355Z AUTO 25017G25KT 10SM OVC036 M01/M04 A2979 RMK AO2 T10061045 10016 21006
cycle: 0

Station Type Date Time Source
KOOA TAF UTC NOAA

Error!


Example: see airport list